sensor_id;sensor_type;location;lat;lon;timestamp;temperature;humidity
66312;HTU21D;53114;51.138;6.008;2023-05-27T00:02:04;12.70;117.56
66312;HTU21D;53114;51.138;6.008;2023-05-27T00:04:30;12.66;117.48
66312;HTU21D;53114;51.138;6.008;2023-05-27T00:06:56;12.65;118.52
66312;HTU21D;53114;51.138;6.008;2023-05-27T00:09:22;12.67;117.91
66312;HTU21D;53114;51.138;6.008;2023-05-27T00:11:48;12.70;118.05
66312;HTU21D;53114;51.138;6.008;2023-05-27T00:14:14;12.67;117.60
66312;HTU21D;53114;51.138;6.008;2023-05-27T00:16:43;12.63;118.02
66312;HTU21D;53114;51.138;6.008;2023-05-27T00:19:09;12.59;118.32
66312;HTU21D;53114;51.138;6.008;2023-05-27T00:21:35;12.57;117.91
66312;HTU21D;53114;51.138;6.008;2023-05-27T00:24:02;12.52;118.82
66312;HTU21D;53114;51.138;6.008;2023-05-27T00:26:29;12.52;118.92
66312;HTU21D;53114;51.138;6.008;2023-05-27T00:28:56;12.47;118.87
66312;HTU21D;53114;51.138;6.008;2023-05-27T00:31:24;12.42;118.99
66312;HTU21D;53114;51.138;6.008;2023-05-27T00:33:51;12.34;118.99
66312;HTU21D;53114;51.138;6.008;2023-05-27T00:36:19;12.28;118.99
66312;HTU21D;53114;51.138;6.008;2023-05-27T00:38:46;12.27;118.99
66312;HTU21D;53114;51.138;6.008;2023-05-27T00:41:12;12.23;118.99
66312;HTU21D;53114;51.138;6.008;2023-05-27T00:43:38;12.23;118.99
66312;HTU21D;53114;51.138;6.008;2023-05-27T00:46:05;12.18;118.99
66312;HTU21D;53114;51.138;6.008;2023-05-27T00:48:31;12.17;118.99
66312;HTU21D;53114;51.138;6.008;2023-05-27T00:50:57;12.11;118.99
66312;HTU21D;53114;51.138;6.008;2023-05-27T00:53:23;12.06;118.99
66312;HTU21D;53114;51.138;6.008;2023-05-27T00:55:53;11.98;118.99
66312;HTU21D;53114;51.138;6.008;2023-05-27T00:58:20;11.99;118.99
66312;HTU21D;53114;51.138;6.008;2023-05-27T01:00:48;12.01;118.99
66312;HTU21D;53114;51.138;6.008;2023-05-27T01:03:15;11.99;118.99
66312;HTU21D;53114;51.138;6.008;2023-05-27T01:05:42;11.92;118.99
66312;HTU21D;53114;51.138;6.008;2023-05-27T01:08:28;11.85;118.99
66312;HTU21D;53114;51.138;6.008;2023-05-27T01:10:57;11.79;118.99
66312;HTU21D;53114;51.138;6.008;2023-05-27T01:13:36;11.79;118.99
66312;HTU21D;53114;51.138;6.008;2023-05-27T01:16:13;11.76;118.99
66312;HTU21D;53114;51.138;6.008;2023-05-27T01:18:44;11.73;118.99
66312;HTU21D;53114;51.138;6.008;2023-05-27T01:21:15;11.72;118.99
66312;HTU21D;53114;51.138;6.008;2023-05-27T01:23:43;11.71;118.99
66312;HTU21D;53114;51.138;6.008;2023-05-27T01:26:10;11.68;118.99
66312;HTU21D;53114;51.138;6.008;2023-05-27T01:28:36;11.66;118.99
66312;HTU21D;53114;51.138;6.008;2023-05-27T01:31:17;11.62;118.99
66312;HTU21D;53114;51.138;6.008;2023-05-27T01:33:52;11.60;118.99
66312;HTU21D;53114;51.138;6.008;2023-05-27T01:36:25;11.61;118.99
66312;HTU21D;53114;51.138;6.008;2023-05-27T01:38:54;11.58;118.99
66312;HTU21D;53114;51.138;6.008;2023-05-27T01:41:22;11.54;118.99
66312;HTU21D;53114;51.138;6.008;2023-05-27T01:43:49;11.47;118.99
66312;HTU21D;53114;51.138;6.008;2023-05-27T01:46:15;11.41;118.99
66312;HTU21D;53114;51.138;6.008;2023-05-27T01:48:43;11.32;118.99
66312;HTU21D;53114;51.138;6.008;2023-05-27T01:51:10;11.28;118.99
66312;HTU21D;53114;51.138;6.008;2023-05-27T01:53:39;11.23;118.99
66312;HTU21D;53114;51.138;6.008;2023-05-27T01:56:05;11.20;118.99
66312;HTU21D;53114;51.138;6.008;2023-05-27T01:58:32;11.16;118.99
66312;HTU21D;53114;51.138;6.008;2023-05-27T02:00:59;11.15;118.99
66312;HTU21D;53114;51.138;6.008;2023-05-27T02:03:26;11.08;118.99
66312;HTU21D;53114;51.138;6.008;2023-05-27T02:05:53;11.02;118.99
66312;HTU21D;53114;51.138;6.008;2023-05-27T02:08:19;11.01;118.99
66312;HTU21D;53114;51.138;6.008;2023-05-27T02:10:45;11.01;118.99
66312;HTU21D;53114;51.138;6.008;2023-05-27T02:13:12;11.01;118.99
66312;HTU21D;53114;51.138;6.008;2023-05-27T02:15:38;10.96;118.99
66312;HTU21D;53114;51.138;6.008;2023-05-27T02:18:04;10.84;118.99
66312;HTU21D;53114;51.138;6.008;2023-05-27T02:20:31;10.82;118.99
66312;HTU21D;53114;51.138;6.008;2023-05-27T02:22:58;10.83;118.99
66312;HTU21D;53114;51.138;6.008;2023-05-27T02:25:24;10.83;118.99
66312;HTU21D;53114;51.138;6.008;2023-05-27T02:27:50;10.82;118.99
66312;HTU21D;53114;51.138;6.008;2023-05-27T02:30:18;10.82;118.99
66312;HTU21D;53114;51.138;6.008;2023-05-27T02:32:44;10.85;118.99
66312;HTU21D;53114;51.138;6.008;2023-05-27T02:35:13;10.87;118.99
66312;HTU21D;53114;51.138;6.008;2023-05-27T02:37:41;10.87;118.99
66312;HTU21D;53114;51.138;6.008;2023-05-27T02:40:07;10.87;118.99
66312;HTU21D;53114;51.138;6.008;2023-05-27T02:42:35;10.79;118.99
66312;HTU21D;53114;51.138;6.008;2023-05-27T02:45:01;10.66;118.99
66312;HTU21D;53114;51.138;6.008;2023-05-27T02:47:28;10.58;118.99
66312;HTU21D;53114;51.138;6.008;2023-05-27T02:49:55;10.59;118.99
66312;HTU21D;53114;51.138;6.008;2023-05-27T02:52:22;10.66;118.99
66312;HTU21D;53114;51.138;6.008;2023-05-27T02:54:51;10.72;118.99
66312;HTU21D;53114;51.138;6.008;2023-05-27T02:57:17;10.78;118.99
66312;HTU21D;53114;51.138;6.008;2023-05-27T02:59:44;10.75;118.99
66312;HTU21D;53114;51.138;6.008;2023-05-27T03:02:13;10.68;118.99
66312;HTU21D;53114;51.138;6.008;2023-05-27T03:04:39;10.59;118.99
66312;HTU21D;53114;51.138;6.008;2023-05-27T03:07:06;10.48;118.99
66312;HTU21D;53114;51.138;6.008;2023-05-27T03:09:33;10.41;118.99
66312;HTU21D;53114;51.138;6.008;2023-05-27T03:12:00;10.39;118.99
66312;HTU21D;53114;51.138;6.008;2023-05-27T03:14:26;10.38;118.99
66312;HTU21D;53114;51.138;6.008;2023-05-27T03:16:53;10.41;118.99
66312;HTU21D;53114;51.138;6.008;2023-05-27T03:19:19;10.44;118.99
66312;HTU21D;53114;51.138;6.008;2023-05-27T03:21:46;10.42;118.99
66312;HTU21D;53114;51.138;6.008;2023-05-27T03:24:13;10.41;118.99
66312;HTU21D;53114;51.138;6.008;2023-05-27T03:26:40;10.37;118.99
66312;HTU21D;53114;51.138;6.008;2023-05-27T03:29:06;10.39;118.99
66312;HTU21D;53114;51.138;6.008;2023-05-27T03:31:33;10.42;118.99
66312;HTU21D;53114;51.138;6.008;2023-05-27T03:34:07;10.43;118.99
66312;HTU21D;53114;51.138;6.008;2023-05-27T03:36:33;10.45;118.99
66312;HTU21D;53114;51.138;6.008;2023-05-27T03:39:00;10.51;118.99
66312;HTU21D;53114;51.138;6.008;2023-05-27T03:41:31;10.52;118.99
66312;HTU21D;53114;51.138;6.008;2023-05-27T03:43:59;10.50;118.99
66312;HTU21D;53114;51.138;6.008;2023-05-27T03:46:26;10.52;118.99
66312;HTU21D;53114;51.138;6.008;2023-05-27T03:48:52;10.46;118.99
66312;HTU21D;53114;51.138;6.008;2023-05-27T03:51:20;10.42;118.99
66312;HTU21D;53114;51.138;6.008;2023-05-27T03:53:46;10.42;118.99
66312;HTU21D;53114;51.138;6.008;2023-05-27T03:56:15;10.43;118.99
66312;HTU21D;53114;51.138;6.008;2023-05-27T03:58:42;10.45;118.99
66312;HTU21D;53114;51.138;6.008;2023-05-27T04:01:08;10.49;118.99
66312;HTU21D;53114;51.138;6.008;2023-05-27T04:03:34;10.51;118.99
66312;HTU21D;53114;51.138;6.008;2023-05-27T04:06:00;10.51;118.99
66312;HTU21D;53114;51.138;6.008;2023-05-27T04:08:26;10.53;118.99
66312;HTU21D;53114;51.138;6.008;2023-05-27T04:10:54;10.53;118.99
66312;HTU21D;53114;51.138;6.008;2023-05-27T04:13:20;10.55;118.99
66312;HTU21D;53114;51.138;6.008;2023-05-27T04:15:47;10.54;118.99
66312;HTU21D;53114;51.138;6.008;2023-05-27T04:18:14;10.56;118.99
66312;HTU21D;53114;51.138;6.008;2023-05-27T04:20:41;10.58;118.99
66312;HTU21D;53114;51.138;6.008;2023-05-27T04:23:09;10.63;118.99
66312;HTU21D;53114;51.138;6.008;2023-05-27T04:25:36;10.67;118.99
66312;HTU21D;53114;51.138;6.008;2023-05-27T04:28:05;10.71;118.99
66312;HTU21D;53114;51.138;6.008;2023-05-27T04:30:34;10.72;118.99
66312;HTU21D;53114;51.138;6.008;2023-05-27T04:33:02;10.74;118.99
66312;HTU21D;53114;51.138;6.008;2023-05-27T04:35:28;10.74;118.99
66312;HTU21D;53114;51.138;6.008;2023-05-27T04:37:58;10.71;118.99
66312;HTU21D;53114;51.138;6.008;2023-05-27T04:40:32;10.69;118.99
66312;HTU21D;53114;51.138;6.008;2023-05-27T04:43:20;10.70;118.99
66312;HTU21D;53114;51.138;6.008;2023-05-27T04:45:47;10.67;118.99
66312;HTU21D;53114;51.138;6.008;2023-05-27T04:48:14;10.72;118.99
66312;HTU21D;53114;51.138;6.008;2023-05-27T04:50:41;10.74;118.99
66312;HTU21D;53114;51.138;6.008;2023-05-27T04:53:08;10.74;118.99
66312;HTU21D;53114;51.138;6.008;2023-05-27T04:55:35;10.80;118.99
66312;HTU21D;53114;51.138;6.008;2023-05-27T04:58:02;10.87;118.99
66312;HTU21D;53114;51.138;6.008;2023-05-27T05:00:30;10.97;118.99
66312;HTU21D;53114;51.138;6.008;2023-05-27T05:03:16;11.05;118.99
66312;HTU21D;53114;51.138;6.008;2023-05-27T05:05:51;11.10;118.99
66312;HTU21D;53114;51.138;6.008;2023-05-27T05:08:22;11.15;118.99
66312;HTU21D;53114;51.138;6.008;2023-05-27T05:10:51;11.23;118.99
66312;HTU21D;53114;51.138;6.008;2023-05-27T05:13:18;11.29;118.99
66312;HTU21D;53114;51.138;6.008;2023-05-27T05:15:44;11.39;118.99
66312;HTU21D;53114;51.138;6.008;2023-05-27T05:18:11;11.44;118.99
66312;HTU21D;53114;51.138;6.008;2023-05-27T05:20:37;11.47;118.99
66312;HTU21D;53114;51.138;6.008;2023-05-27T05:23:07;11.51;118.99
66312;HTU21D;53114;51.138;6.008;2023-05-27T05:25:33;11.56;118.99
66312;HTU21D;53114;51.138;6.008;2023-05-27T05:28:04;11.57;118.99
66312;HTU21D;53114;51.138;6.008;2023-05-27T05:30:33;11.61;118.99
66312;HTU21D;53114;51.138;6.008;2023-05-27T05:32:59;11.67;118.99
66312;HTU21D;53114;51.138;6.008;2023-05-27T05:35:30;11.76;118.99
66312;HTU21D;53114;51.138;6.008;2023-05-27T05:38:09;11.82;118.99
66312;HTU21D;53114;51.138;6.008;2023-05-27T05:40:35;11.87;118.99
66312;HTU21D;53114;51.138;6.008;2023-05-27T05:43:27;11.91;118.99
66312;HTU21D;53114;51.138;6.008;2023-05-27T05:45:54;11.98;118.99
66312;HTU21D;53114;51.138;6.008;2023-05-27T05:48:22;12.07;118.99
66312;HTU21D;53114;51.138;6.008;2023-05-27T05:50:49;12.17;118.99
66312;HTU21D;53114;51.138;6.008;2023-05-27T05:53:15;12.27;118.99
66312;HTU21D;53114;51.138;6.008;2023-05-27T05:55:43;12.36;118.99
66312;HTU21D;53114;51.138;6.008;2023-05-27T05:58:09;12.47;118.99
66312;HTU21D;53114;51.138;6.008;2023-05-27T06:00:36;12.57;118.99
66312;HTU21D;53114;51.138;6.008;2023-05-27T06:03:22;12.69;118.99
66312;HTU21D;53114;51.138;6.008;2023-05-27T06:05:52;12.80;118.99
66312;HTU21D;53114;51.138;6.008;2023-05-27T06:08:19;12.86;118.99
66312;HTU21D;53114;51.138;6.008;2023-05-27T06:10:55;12.90;118.99
66312;HTU21D;53114;51.138;6.008;2023-05-27T06:13:21;12.96;118.99
66312;HTU21D;53114;51.138;6.008;2023-05-27T06:15:52;12.99;118.99
66312;HTU21D;53114;51.138;6.008;2023-05-27T06:18:18;13.01;118.99
66312;HTU21D;53114;51.138;6.008;2023-05-27T06:20:45;13.04;118.99
66312;HTU21D;53114;51.138;6.008;2023-05-27T06:23:11;13.15;118.99
66312;HTU21D;53114;51.138;6.008;2023-05-27T06:25:56;13.24;118.99
66312;HTU21D;53114;51.138;6.008;2023-05-27T06:28:24;13.30;118.99
66312;HTU21D;53114;51.138;6.008;2023-05-27T06:30:51;13.33;118.99
66312;HTU21D;53114;51.138;6.008;2023-05-27T06:33:17;13.40;118.99
66312;HTU21D;53114;51.138;6.008;2023-05-27T06:35:43;13.48;118.99
66312;HTU21D;53114;51.138;6.008;2023-05-27T06:38:10;13.58;118.99
66312;HTU21D;53114;51.138;6.008;2023-05-27T06:40:36;13.65;118.99
66312;HTU21D;53114;51.138;6.008;2023-05-27T06:43:02;13.75;118.99
66312;HTU21D;53114;51.138;6.008;2023-05-27T06:45:44;13.86;118.99
66312;HTU21D;53114;51.138;6.008;2023-05-27T06:48:30;14.01;118.99
66312;HTU21D;53114;51.138;6.008;2023-05-27T06:50:57;14.17;118.99
66312;HTU21D;53114;51.138;6.008;2023-05-27T06:53:23;14.37;118.99
66312;HTU21D;53114;51.138;6.008;2023-05-27T06:55:57;14.59;117.40
66312;HTU21D;53114;51.138;6.008;2023-05-27T06:59:01;14.70;117.21
66312;HTU21D;53114;51.138;6.008;2023-05-27T07:01:27;14.75;116.76
66312;HTU21D;53114;51.138;6.008;2023-05-27T07:03:58;14.84;115.94
66312;HTU21D;53114;51.138;6.008;2023-05-27T07:06:39;14.88;115.83
66312;HTU21D;53114;51.138;6.008;2023-05-27T07:09:05;14.91;114.88
66312;HTU21D;53114;51.138;6.008;2023-05-27T07:11:34;14.97;114.26
66312;HTU21D;53114;51.138;6.008;2023-05-27T07:14:06;15.06;114.22
66312;HTU21D;53114;51.138;6.008;2023-05-27T07:16:36;15.17;113.73
66312;HTU21D;53114;51.138;6.008;2023-05-27T07:19:03;15.31;112.90
66312;HTU21D;53114;51.138;6.008;2023-05-27T07:21:33;15.42;110.84
66312;HTU21D;53114;51.138;6.008;2023-05-27T07:24:01;15.61;110.71
66312;HTU21D;53114;51.138;6.008;2023-05-27T07:26:33;15.77;109.43
66312;HTU21D;53114;51.138;6.008;2023-05-27T07:29:00;15.88;108.78
66312;HTU21D;53114;51.138;6.008;2023-05-27T07:31:46;15.96;106.98
66312;HTU21D;53114;51.138;6.008;2023-05-27T07:34:14;16.17;106.98
66312;HTU21D;53114;51.138;6.008;2023-05-27T07:36:41;16.44;106.88
66312;HTU21D;53114;51.138;6.008;2023-05-27T07:39:07;17.10;103.80
66312;HTU21D;53114;51.138;6.008;2023-05-27T07:41:33;19.15;90.88
66312;HTU21D;53114;51.138;6.008;2023-05-27T07:44:01;21.79;61.18
66312;HTU21D;53114;51.138;6.008;2023-05-27T07:46:28;24.20;47.94
66312;HTU21D;53114;51.138;6.008;2023-05-27T07:48:54;26.12;41.79
66312;HTU21D;53114;51.138;6.008;2023-05-27T07:51:24;28.12;35.92
66312;HTU21D;53114;51.138;6.008;2023-05-27T07:53:50;29.61;32.64
66312;HTU21D;53114;51.138;6.008;2023-05-27T07:56:18;30.70;30.09
66312;HTU21D;53114;51.138;6.008;2023-05-27T07:58:44;31.39;28.75
66312;HTU21D;53114;51.138;6.008;2023-05-27T08:01:12;32.19;27.32
66312;HTU21D;53114;51.138;6.008;2023-05-27T08:03:43;33.05;25.30
66312;HTU21D;53114;51.138;6.008;2023-05-27T08:06:28;33.52;24.46
66312;HTU21D;53114;51.138;6.008;2023-05-27T08:09:32;33.60;24.71
66312;HTU21D;53114;51.138;6.008;2023-05-27T08:12:07;34.16;23.25
66312;HTU21D;53114;51.138;6.008;2023-05-27T08:14:53;34.78;21.95
66312;HTU21D;53114;51.138;6.008;2023-05-27T08:17:35;35.35;21.21
66312;HTU21D;53114;51.138;6.008;2023-05-27T08:20:13;35.49;20.41
66312;HTU21D;53114;51.138;6.008;2023-05-27T08:22:45;35.72;19.44
66312;HTU21D;53114;51.138;6.008;2023-05-27T08:25:43;35.96;19.32
66312;HTU21D;53114;51.138;6.008;2023-05-27T08:28:18;35.78;19.82
66312;HTU21D;53114;51.138;6.008;2023-05-27T08:31:04;35.64;18.93
66312;HTU21D;53114;51.138;6.008;2023-05-27T08:33:36;35.83;19.33
66312;HTU21D;53114;51.138;6.008;2023-05-27T08:36:03;36.33;18.23
66312;HTU21D;53114;51.138;6.008;2023-05-27T08:38:29;35.64;18.85
66312;HTU21D;53114;51.138;6.008;2023-05-27T08:41:08;35.35;19.44
66312;HTU21D;53114;51.138;6.008;2023-05-27T08:43:35;35.49;19.79
66312;HTU21D;53114;51.138;6.008;2023-05-27T08:46:02;35.44;19.80
66312;HTU21D;53114;51.138;6.008;2023-05-27T08:48:28;35.56;19.34
66312;HTU21D;53114;51.138;6.008;2023-05-27T08:50:54;36.10;19.07
66312;HTU21D;53114;51.138;6.008;2023-05-27T08:53:22;35.98;19.41
66312;HTU21D;53114;51.138;6.008;2023-05-27T08:55:51;35.89;19.45
66312;HTU21D;53114;51.138;6.008;2023-05-27T08:58:20;36.43;18.62
66312;HTU21D;53114;51.138;6.008;2023-05-27T09:00:48;36.97;17.83
66312;HTU21D;53114;51.138;6.008;2023-05-27T09:03:24;36.78;18.17
66312;HTU21D;53114;51.138;6.008;2023-05-27T09:05:53;36.85;18.38
66312;HTU21D;53114;51.138;6.008;2023-05-27T09:08:20;37.01;18.09
66312;HTU21D;53114;51.138;6.008;2023-05-27T09:10:46;37.03;18.12
66312;HTU21D;53114;51.138;6.008;2023-05-27T09:13:12;37.30;16.86
66312;HTU21D;53114;51.138;6.008;2023-05-27T09:15:40;37.36;16.71
66312;HTU21D;53114;51.138;6.008;2023-05-27T09:18:06;37.66;16.81
66312;HTU21D;53114;51.138;6.008;2023-05-27T09:20:32;37.67;16.67
66312;HTU21D;53114;51.138;6.008;2023-05-27T09:23:00;37.79;16.28
66312;HTU21D;53114;51.138;6.008;2023-05-27T09:25:27;38.20;15.81
66312;HTU21D;53114;51.138;6.008;2023-05-27T09:27:55;38.34;15.13
66312;HTU21D;53114;51.138;6.008;2023-05-27T09:30:22;38.37;15.51
66312;HTU21D;53114;51.138;6.008;2023-05-27T09:32:49;37.86;15.78
66312;HTU21D;53114;51.138;6.008;2023-05-27T09:35:17;36.98;17.08
66312;HTU21D;53114;51.138;6.008;2023-05-27T09:37:44;37.07;17.09
66312;HTU21D;53114;51.138;6.008;2023-05-27T09:40:13;37.90;16.00
66312;HTU21D;53114;51.138;6.008;2023-05-27T09:42:43;38.45;15.93
66312;HTU21D;53114;51.138;6.008;2023-05-27T09:45:20;38.90;15.26
66312;HTU21D;53114;51.138;6.008;2023-05-27T09:47:50;38.97;15.77
66312;HTU21D;53114;51.138;6.008;2023-05-27T09:50:18;38.93;14.81
66312;HTU21D;53114;51.138;6.008;2023-05-27T09:52:44;38.64;14.20
66312;HTU21D;53114;51.138;6.008;2023-05-27T09:55:12;38.51;14.49
66312;HTU21D;53114;51.138;6.008;2023-05-27T09:57:39;38.90;13.86
66312;HTU21D;53114;51.138;6.008;2023-05-27T10:00:11;38.75;14.87
66312;HTU21D;53114;51.138;6.008;2023-05-27T10:02:50;38.05;15.67
66312;HTU21D;53114;51.138;6.008;2023-05-27T10:05:17;37.78;15.88
66312;HTU21D;53114;51.138;6.008;2023-05-27T10:07:46;37.86;16.02
66312;HTU21D;53114;51.138;6.008;2023-05-27T10:10:16;37.71;16.12
66312;HTU21D;53114;51.138;6.008;2023-05-27T10:12:45;37.62;15.23
66312;HTU21D;53114;51.138;6.008;2023-05-27T10:15:27;36.84;21.71
66312;HTU21D;53114;51.138;6.008;2023-05-27T10:17:56;35.42;24.18
66312;HTU21D;53114;51.138;6.008;2023-05-27T10:20:36;35.09;22.11
66312;HTU21D;53114;51.138;6.008;2023-05-27T10:23:17;34.48;21.98
66312;HTU21D;53114;51.138;6.008;2023-05-27T10:25:47;33.72;24.85
66312;HTU21D;53114;51.138;6.008;2023-05-27T10:30:53;32.55;24.13
66312;HTU21D;53114;51.138;6.008;2023-05-27T10:33:29;32.45;23.69
66312;HTU21D;53114;51.138;6.008;2023-05-27T10:36:07;32.41;24.53
66312;HTU21D;53114;51.138;6.008;2023-05-27T10:38:34;31.24;26.62
66312;HTU21D;53114;51.138;6.008;2023-05-27T10:41:03;30.27;28.23
66312;HTU21D;53114;51.138;6.008;2023-05-27T10:43:30;29.73;29.04
66312;HTU21D;53114;51.138;6.008;2023-05-27T10:46:16;29.09;31.66
66312;HTU21D;53114;51.138;6.008;2023-05-27T10:48:42;28.45;30.32
66312;HTU21D;53114;51.138;6.008;2023-05-27T10:51:08;28.12;30.61
66312;HTU21D;53114;51.138;6.008;2023-05-27T10:53:36;27.98;30.48
66312;HTU21D;53114;51.138;6.008;2023-05-27T10:56:03;27.75;30.74
66312;HTU21D;53114;51.138;6.008;2023-05-27T10:58:33;27.64;30.41
66312;HTU21D;53114;51.138;6.008;2023-05-27T11:01:10;27.50;30.34
66312;HTU21D;53114;51.138;6.008;2023-05-27T11:03:45;27.25;31.28
66312;HTU21D;53114;51.138;6.008;2023-05-27T11:06:12;27.10;31.19
66312;HTU21D;53114;51.138;6.008;2023-05-27T11:08:38;27.12;29.89
66312;HTU21D;53114;51.138;6.008;2023-05-27T11:11:10;26.86;30.51
66312;HTU21D;53114;51.138;6.008;2023-05-27T11:13:44;26.75;30.63
66312;HTU21D;53114;51.138;6.008;2023-05-27T11:16:12;26.70;30.92
66312;HTU21D;53114;51.138;6.008;2023-05-27T11:18:46;26.68;30.83
66312;HTU21D;53114;51.138;6.008;2023-05-27T11:21:13;26.50;30.75
66312;HTU21D;53114;51.138;6.008;2023-05-27T11:23:44;26.39;33.13
66312;HTU21D;53114;51.138;6.008;2023-05-27T11:28:47;26.60;32.55
66312;HTU21D;53114;51.138;6.008;2023-05-27T11:31:14;26.71;32.94
66312;HTU21D;53114;51.138;6.008;2023-05-27T11:33:42;26.76;32.04
66312;HTU21D;53114;51.138;6.008;2023-05-27T11:36:13;26.65;29.83
66312;HTU21D;53114;51.138;6.008;2023-05-27T11:38:55;26.61;30.06
66312;HTU21D;53114;51.138;6.008;2023-05-27T11:41:27;26.49;30.19
66312;HTU21D;53114;51.138;6.008;2023-05-27T11:44:01;26.35;30.22
66312;HTU21D;53114;51.138;6.008;2023-05-27T11:46:40;26.43;30.91
66312;HTU21D;53114;51.138;6.008;2023-05-27T11:49:10;26.57;30.22
66312;HTU21D;53114;51.138;6.008;2023-05-27T11:51:41;26.65;30.22
66312;HTU21D;53114;51.138;6.008;2023-05-27T11:56:43;26.81;32.24
66312;HTU21D;53114;51.138;6.008;2023-05-27T11:59:09;26.94;32.28
66312;HTU21D;53114;51.138;6.008;2023-05-27T12:01:35;26.93;31.93
66312;HTU21D;53114;51.138;6.008;2023-05-27T12:04:01;26.83;31.96
66312;HTU21D;53114;51.138;6.008;2023-05-27T12:06:27;26.91;31.73
66312;HTU21D;53114;51.138;6.008;2023-05-27T12:08:53;27.05;30.70
66312;HTU21D;53114;51.138;6.008;2023-05-27T12:11:19;26.99;29.51
66312;HTU21D;53114;51.138;6.008;2023-05-27T12:13:48;26.87;29.74
66312;HTU21D;53114;51.138;6.008;2023-05-27T12:16:15;26.82;30.35
66312;HTU21D;53114;51.138;6.008;2023-05-27T12:18:40;26.85;30.19
66312;HTU21D;53114;51.138;6.008;2023-05-27T12:21:07;26.90;30.93
66312;HTU21D;53114;51.138;6.008;2023-05-27T12:23:33;26.79;30.39
66312;HTU21D;53114;51.138;6.008;2023-05-27T12:26:00;26.72;32.25
66312;HTU21D;53114;51.138;6.008;2023-05-27T12:28:26;26.71;33.27
66312;HTU21D;53114;51.138;6.008;2023-05-27T12:30:53;26.70;32.52
66312;HTU21D;53114;51.138;6.008;2023-05-27T12:33:19;26.66;33.01
66312;HTU21D;53114;51.138;6.008;2023-05-27T12:35:44;26.60;32.05
66312;HTU21D;53114;51.138;6.008;2023-05-27T12:38:10;26.57;31.80
66312;HTU21D;53114;51.138;6.008;2023-05-27T12:40:36;26.57;31.03
66312;HTU21D;53114;51.138;6.008;2023-05-27T12:43:03;26.53;30.37
66312;HTU21D;53114;51.138;6.008;2023-05-27T12:45:32;26.39;30.14
66312;HTU21D;53114;51.138;6.008;2023-05-27T12:47:59;26.28;30.97
66312;HTU21D;53114;51.138;6.008;2023-05-27T12:50:25;26.28;31.57
66312;HTU21D;53114;51.138;6.008;2023-05-27T12:52:51;26.25;31.21
66312;HTU21D;53114;51.138;6.008;2023-05-27T12:55:20;26.23;30.75
66312;HTU21D;53114;51.138;6.008;2023-05-27T12:57:52;26.18;30.57
66312;HTU21D;53114;51.138;6.008;2023-05-27T13:00:21;26.12;30.92
66312;HTU21D;53114;51.138;6.008;2023-05-27T13:02:48;26.17;31.20
66312;HTU21D;53114;51.138;6.008;2023-05-27T13:05:16;26.21;32.11
66312;HTU21D;53114;51.138;6.008;2023-05-27T13:08:02;26.23;31.38
66312;HTU21D;53114;51.138;6.008;2023-05-27T13:10:30;26.26;32.08
66312;HTU21D;53114;51.138;6.008;2023-05-27T13:12:59;26.32;31.53
66312;HTU21D;53114;51.138;6.008;2023-05-27T13:15:29;26.35;31.80
66312;HTU21D;53114;51.138;6.008;2023-05-27T13:17:55;26.42;31.48
66312;HTU21D;53114;51.138;6.008;2023-05-27T13:20:23;26.42;30.91
66312;HTU21D;53114;51.138;6.008;2023-05-27T13:22:50;26.43;30.68
66312;HTU21D;53114;51.138;6.008;2023-05-27T13:25:16;26.49;30.40
66312;HTU21D;53114;51.138;6.008;2023-05-27T13:27:43;26.48;30.17
66312;HTU21D;53114;51.138;6.008;2023-05-27T13:30:14;26.39;30.34
66312;HTU21D;53114;51.138;6.008;2023-05-27T13:32:41;26.28;30.91
66312;HTU21D;53114;51.138;6.008;2023-05-27T13:35:09;26.25;31.94
66312;HTU21D;53114;51.138;6.008;2023-05-27T13:37:37;26.21;29.96
66312;HTU21D;53114;51.138;6.008;2023-05-27T13:40:05;26.15;30.66
66312;HTU21D;53114;51.138;6.008;2023-05-27T13:42:31;26.22;31.04
66312;HTU21D;53114;51.138;6.008;2023-05-27T13:44:58;26.30;30.99
66312;HTU21D;53114;51.138;6.008;2023-05-27T13:47:24;26.37;30.02
66312;HTU21D;53114;51.138;6.008;2023-05-27T13:49:52;26.35;30.50
66312;HTU21D;53114;51.138;6.008;2023-05-27T13:52:18;26.37;30.48
66312;HTU21D;53114;51.138;6.008;2023-05-27T13:54:44;26.41;30.51
66312;HTU21D;53114;51.138;6.008;2023-05-27T13:57:12;26.48;30.16
66312;HTU21D;53114;51.138;6.008;2023-05-27T13:59:38;26.43;29.94
66312;HTU21D;53114;51.138;6.008;2023-05-27T14:02:04;26.38;29.83
66312;HTU21D;53114;51.138;6.008;2023-05-27T14:04:33;26.36;30.41
66312;HTU21D;53114;51.138;6.008;2023-05-27T14:06:59;26.35;31.04
66312;HTU21D;53114;51.138;6.008;2023-05-27T14:09:25;26.37;31.24
66312;HTU21D;53114;51.138;6.008;2023-05-27T14:11:51;26.45;31.28
66312;HTU21D;53114;51.138;6.008;2023-05-27T14:14:17;26.50;31.52
66312;HTU21D;53114;51.138;6.008;2023-05-27T14:16:43;26.46;31.96
66312;HTU21D;53114;51.138;6.008;2023-05-27T14:19:09;26.37;31.60
66312;HTU21D;53114;51.138;6.008;2023-05-27T14:21:35;26.05;30.95
66312;HTU21D;53114;51.138;6.008;2023-05-27T14:24:01;25.77;31.33
66312;HTU21D;53114;51.138;6.008;2023-05-27T14:26:27;25.64;31.90
66312;HTU21D;53114;51.138;6.008;2023-05-27T14:28:54;25.59;31.91
66312;HTU21D;53114;51.138;6.008;2023-05-27T14:31:20;25.50;31.92
66312;HTU21D;53114;51.138;6.008;2023-05-27T14:33:46;25.38;32.91
66312;HTU21D;53114;51.138;6.008;2023-05-27T14:36:15;25.30;32.95
66312;HTU21D;53114;51.138;6.008;2023-05-27T14:38:41;25.31;33.70
66312;HTU21D;53114;51.138;6.008;2023-05-27T14:41:07;25.36;32.93
66312;HTU21D;53114;51.138;6.008;2023-05-27T14:43:33;25.38;32.09
66312;HTU21D;53114;51.138;6.008;2023-05-27T14:45:58;25.39;32.00
66312;HTU21D;53114;51.138;6.008;2023-05-27T14:48:25;25.35;32.01
66312;HTU21D;53114;51.138;6.008;2023-05-27T14:50:53;25.40;32.56
66312;HTU21D;53114;51.138;6.008;2023-05-27T14:53:19;25.42;32.96
66312;HTU21D;53114;51.138;6.008;2023-05-27T14:55:48;25.40;32.70
66312;HTU21D;53114;51.138;6.008;2023-05-27T14:58:15;25.24;32.69
66312;HTU21D;53114;51.138;6.008;2023-05-27T15:00:44;25.15;33.26
66312;HTU21D;53114;51.138;6.008;2023-05-27T15:03:10;24.97;33.37
66312;HTU21D;53114;51.138;6.008;2023-05-27T15:05:36;24.82;33.57
66312;HTU21D;53114;51.138;6.008;2023-05-27T15:08:05;24.75;33.01
66312;HTU21D;53114;51.138;6.008;2023-05-27T15:10:31;24.63;33.57
66312;HTU21D;53114;51.138;6.008;2023-05-27T15:12:57;24.60;34.05
66312;HTU21D;53114;51.138;6.008;2023-05-27T15:15:23;24.57;33.95
66312;HTU21D;53114;51.138;6.008;2023-05-27T15:17:49;24.51;34.56
66312;HTU21D;53114;51.138;6.008;2023-05-27T15:20:16;24.40;34.00
66312;HTU21D;53114;51.138;6.008;2023-05-27T15:22:44;24.35;33.70
66312;HTU21D;53114;51.138;6.008;2023-05-27T15:25:10;24.34;33.67
66312;HTU21D;53114;51.138;6.008;2023-05-27T15:27:36;24.35;34.25
66312;HTU21D;53114;51.138;6.008;2023-05-27T15:30:04;24.45;33.79